Current Conditions
Clear
Conditions



Pressure
1028.92 (hPa) - 30.38 (inHG)
Visibility

10.0 (km) - 6.2 (miles)
   Temperature
15  °C
59°F
-2  °C
Dewpoint
31  %
 Humidity
   Wind Speed
17  kts
20  mph
32  km/h
8.9  m/s
   Wind Direction
 120°
East South
East
   Airport Data
LKTB
Location Brno-Tuřany 61 km (37.91 mi)
Metar :LKTB 060930Z 12017KT CAVOK 15/M02 Q1029 NOSIG
Mon 6th April 10:30 am
   Raw Metar Info
Raw METAR is the most common format in the world for the transmission of observational weather data. It is highly standardized through the International Civil Aviation Organization (ICAO), which allows it to be understood throughout most of the world.
   API Info
Data Provided by
https://www.checkwx.com/weather/LKTB
   © Info
CSS/SVG/PHP scripts were developed by weather34.com for use in the weather34 template © 2015-2020

Guide Info provided by Metar-Wikipedia